GXCIR EGBM-EGPD
Flight info
| Callsign | GXCIR |
|---|---|
| Flight time | 1h 47m |
| Altitude | 8000 |
| Route | DENBY N57 POL N601 GRICE/N0198F070 P600 ASNUD |
| Aircraft | BE58/L-SDFGRY/C |
Departure
| Time | 2026-05-04 08:46 |
|---|---|
| Airport | Tatenhill Airfield (EGBM) |
Arrival
| Time | 2026-05-04 10:33 |
|---|---|
| Airport | Aberdeen International Airport (EGPD) |
| Time | Latitude | Longitude | Altitude | Speed | Heading |
|---|---|---|---|---|---|
| 2026-05-04 08:33 | 52.81449 | -1.76721 | 426 ft | 0 kts | 254° |
| 2026-05-04 08:43 | 52.81450 | -1.76729 | 427 ft | 3 kts | 287° |
| 2026-05-04 08:43 | 52.81463 | -1.76733 | 427 ft | 8 kts | 15° |
| 2026-05-04 08:44 | 52.81493 | -1.76719 | 428 ft | 0 kts | 0° |
| 2026-05-04 08:44 | 52.81494 | -1.76719 | 429 ft | 1 kts | 360° |
| 2026-05-04 08:46 | 52.82502 | -1.73330 | 2255 ft | 89 kts | 18° |
| 2026-05-04 08:46 | 52.83011 | -1.73046 | 2797 ft | 87 kts | 18° |
| 2026-05-04 08:46 | 52.83802 | -1.72606 | 2532 ft | 153 kts | 18° |
| 2026-05-04 08:46 | 52.84860 | -1.72039 | 2662 ft | 165 kts | 10° |
| 2026-05-04 08:47 | 52.85956 | -1.72545 | 2903 ft | 171 kts | 327° |
| 2026-05-04 08:47 | 52.86895 | -1.73793 | 3110 ft | 174 kts | 321° |
| 2026-05-04 08:47 | 52.88114 | -1.75506 | 3424 ft | 173 kts | 321° |
| 2026-05-04 08:47 | 52.88733 | -1.76375 | 3591 ft | 173 kts | 321° |
| 2026-05-04 08:48 | 52.89653 | -1.77648 | 3836 ft | 172 kts | 324° |
| 2026-05-04 08:48 | 52.90677 | -1.78585 | 4067 ft | 171 kts | 338° |
| 2026-05-04 08:48 | 52.91806 | -1.79181 | 4311 ft | 170 kts | 345° |
| 2026-05-04 08:48 | 52.92965 | -1.79614 | 4559 ft | 170 kts | 348° |
| 2026-05-04 08:49 | 52.94107 | -1.79971 | 4837 ft | 168 kts | 349° |
| 2026-05-04 08:50 | 53.00636 | -1.81800 | 6767 ft | 153 kts | 348° |
| 2026-05-04 08:50 | 53.01681 | -1.82089 | 7088 ft | 152 kts | 348° |
| 2026-05-04 08:51 | 53.02713 | -1.82374 | 7410 ft | 151 kts | 348° |
| 2026-05-04 08:51 | 53.03745 | -1.82659 | 7733 ft | 150 kts | 348° |
| 2026-05-04 08:51 | 53.04762 | -1.82940 | 8054 ft | 149 kts | 348° |
| 2026-05-04 08:51 | 53.05824 | -1.83238 | 8095 ft | 165 kts | 348° |
| 2026-05-04 08:52 | 53.06992 | -1.83560 | 8081 ft | 177 kts | 348° |
| 2026-05-04 08:52 | 53.08228 | -1.83898 | 8058 ft | 185 kts | 349° |
| 2026-05-04 08:52 | 53.09519 | -1.84253 | 7993 ft | 191 kts | 349° |
| 2026-05-04 08:52 | 53.10852 | -1.84620 | 7915 ft | 196 kts | 349° |
| 2026-05-04 08:53 | 53.12210 | -1.84996 | 7798 ft | 199 kts | 349° |
| 2026-05-04 08:54 | 53.21378 | -1.87547 | 8017 ft | 192 kts | 348° |
| 2026-05-04 08:55 | 53.22697 | -1.87915 | 8016 ft | 193 kts | 349° |
| 2026-05-04 08:55 | 53.24034 | -1.88288 | 8015 ft | 193 kts | 349° |
| 2026-05-04 08:55 | 53.25348 | -1.88655 | 8016 ft | 193 kts | 349° |
| 2026-05-04 08:55 | 53.26667 | -1.89024 | 8015 ft | 193 kts | 349° |
| 2026-05-04 08:57 | 53.35589 | -1.91559 | 8011 ft | 176 kts | 348° |
| 2026-05-04 09:01 | 53.52425 | -1.96421 | 8017 ft | 176 kts | 340° |
| 2026-05-04 09:01 | 53.53561 | -1.97128 | 8014 ft | 176 kts | 338° |
| 2026-05-04 09:01 | 53.54708 | -1.97856 | 8012 ft | 176 kts | 338° |
| 2026-05-04 09:01 | 53.55848 | -1.98579 | 8013 ft | 176 kts | 338° |
| 2026-05-04 09:02 | 53.57007 | -1.99314 | 8012 ft | 176 kts | 338° |
| 2026-05-04 09:02 | 53.58135 | -2.00030 | 8012 ft | 176 kts | 339° |
| 2026-05-04 09:02 | 53.59288 | -2.00761 | 8015 ft | 176 kts | 339° |
| 2026-05-04 09:02 | 53.60426 | -2.01483 | 8018 ft | 176 kts | 339° |
| 2026-05-04 09:03 | 53.61577 | -2.02212 | 8023 ft | 176 kts | 339° |
| 2026-05-04 09:03 | 53.62716 | -2.02929 | 8028 ft | 176 kts | 339° |
| 2026-05-04 09:03 | 53.63858 | -2.03650 | 8033 ft | 175 kts | 339° |
| 2026-05-04 09:03 | 53.65007 | -2.04379 | 8032 ft | 176 kts | 339° |
| 2026-05-04 09:04 | 53.66140 | -2.05098 | 8034 ft | 176 kts | 339° |
| 2026-05-04 09:04 | 53.67291 | -2.05829 | 8035 ft | 176 kts | 339° |
| 2026-05-04 09:04 | 53.68427 | -2.06552 | 8036 ft | 176 kts | 339° |
| 2026-05-04 09:04 | 53.69571 | -2.07280 | 8036 ft | 176 kts | 339° |
| 2026-05-04 09:05 | 53.70718 | -2.08011 | 8035 ft | 176 kts | 339° |
| 2026-05-04 09:05 | 53.71868 | -2.08745 | 8036 ft | 176 kts | 339° |
| 2026-05-04 09:05 | 53.73008 | -2.09472 | 8035 ft | 176 kts | 339° |
| 2026-05-04 09:05 | 53.74155 | -2.10205 | 8036 ft | 176 kts | 339° |
| 2026-05-04 09:06 | 53.75300 | -2.10973 | 8035 ft | 176 kts | 338° |
| 2026-05-04 09:07 | 53.83213 | -2.16366 | 8036 ft | 175 kts | 338° |
| 2026-05-04 09:08 | 53.84345 | -2.17139 | 8032 ft | 175 kts | 338° |
| 2026-05-04 09:08 | 53.85477 | -2.17914 | 8035 ft | 175 kts | 339° |
| 2026-05-04 09:08 | 53.86595 | -2.18678 | 8035 ft | 175 kts | 339° |
| 2026-05-04 09:08 | 53.87724 | -2.19449 | 8035 ft | 175 kts | 338° |
| 2026-05-04 09:09 | 53.88852 | -2.20221 | 8037 ft | 175 kts | 338° |
| 2026-05-04 09:09 | 53.89987 | -2.20998 | 8041 ft | 175 kts | 338° |
| 2026-05-04 09:09 | 53.91111 | -2.21768 | 8044 ft | 176 kts | 338° |
| 2026-05-04 09:09 | 53.92243 | -2.22544 | 8040 ft | 176 kts | 338° |
| 2026-05-04 09:10 | 53.93385 | -2.23327 | 8041 ft | 176 kts | 338° |
| 2026-05-04 09:10 | 53.94523 | -2.24108 | 8043 ft | 176 kts | 338° |
| 2026-05-04 09:10 | 53.95654 | -2.24885 | 8041 ft | 176 kts | 338° |
| 2026-05-04 09:10 | 53.96793 | -2.25667 | 8042 ft | 176 kts | 338° |
| 2026-05-04 09:11 | 53.97924 | -2.26445 | 8042 ft | 175 kts | 338° |
| 2026-05-04 09:11 | 53.99044 | -2.27215 | 8041 ft | 175 kts | 338° |
| 2026-05-04 09:11 | 54.00172 | -2.27992 | 8037 ft | 174 kts | 338° |
| 2026-05-04 09:11 | 54.01297 | -2.28767 | 8036 ft | 174 kts | 338° |
| 2026-05-04 09:12 | 54.02414 | -2.29538 | 8035 ft | 174 kts | 338° |
| 2026-05-04 09:12 | 54.03527 | -2.30308 | 8036 ft | 174 kts | 338° |
| 2026-05-04 09:14 | 54.11396 | -2.35756 | 8034 ft | 175 kts | 338° |
| 2026-05-04 09:14 | 54.12523 | -2.36538 | 8033 ft | 175 kts | 338° |
| 2026-05-04 09:14 | 54.13658 | -2.37327 | 8032 ft | 175 kts | 338° |
| 2026-05-04 09:14 | 54.14783 | -2.38108 | 8030 ft | 175 kts | 338° |
| 2026-05-04 09:15 | 54.15910 | -2.38891 | 8025 ft | 175 kts | 338° |
| 2026-05-04 09:15 | 54.17031 | -2.39668 | 8023 ft | 175 kts | 338° |
| 2026-05-04 09:15 | 54.18158 | -2.40451 | 8022 ft | 175 kts | 338° |
| 2026-05-04 09:15 | 54.19281 | -2.41231 | 8019 ft | 174 kts | 338° |
| 2026-05-04 09:17 | 54.28285 | -2.47501 | 8018 ft | 175 kts | 338° |
| 2026-05-04 09:18 | 54.29417 | -2.48292 | 8019 ft | 174 kts | 338° |
| 2026-05-04 09:18 | 54.30530 | -2.49071 | 8020 ft | 174 kts | 338° |
| 2026-05-04 09:18 | 54.31657 | -2.49859 | 8019 ft | 174 kts | 338° |
| 2026-05-04 09:18 | 54.32771 | -2.50637 | 8019 ft | 174 kts | 338° |
| 2026-05-04 09:19 | 54.33893 | -2.51423 | 8018 ft | 174 kts | 338° |
| 2026-05-04 09:19 | 54.35001 | -2.52200 | 8018 ft | 174 kts | 338° |
| 2026-05-04 09:19 | 54.36123 | -2.52986 | 8019 ft | 174 kts | 338° |
| 2026-05-04 09:19 | 54.37235 | -2.53766 | 8019 ft | 174 kts | 338° |
| 2026-05-04 09:20 | 54.38357 | -2.54553 | 8019 ft | 174 kts | 338° |
| 2026-05-04 09:20 | 54.39480 | -2.55341 | 8020 ft | 175 kts | 338° |
| 2026-05-04 09:20 | 54.40610 | -2.56135 | 8020 ft | 175 kts | 338° |
| 2026-05-04 09:20 | 54.41736 | -2.56926 | 8021 ft | 175 kts | 338° |
| 2026-05-04 09:21 | 54.42845 | -2.57707 | 8024 ft | 174 kts | 338° |
| 2026-05-04 09:21 | 54.43979 | -2.58505 | 8021 ft | 174 kts | 338° |
| 2026-05-04 09:21 | 54.45088 | -2.59285 | 8020 ft | 174 kts | 338° |
| 2026-05-04 09:21 | 54.46209 | -2.60074 | 8018 ft | 174 kts | 337° |
| 2026-05-04 09:22 | 54.47325 | -2.60862 | 8016 ft | 174 kts | 337° |
| 2026-05-04 09:22 | 54.48450 | -2.61655 | 8016 ft | 174 kts | 337° |
| 2026-05-04 09:22 | 54.49575 | -2.62449 | 8013 ft | 174 kts | 337° |
| 2026-05-04 09:22 | 54.50697 | -2.63242 | 8012 ft | 174 kts | 337° |
| 2026-05-04 09:23 | 54.51819 | -2.64035 | 8012 ft | 174 kts | 337° |
| 2026-05-04 09:23 | 54.52930 | -2.64822 | 8012 ft | 174 kts | 337° |
| 2026-05-04 09:23 | 54.54063 | -2.65625 | 8014 ft | 174 kts | 336° |
| 2026-05-04 09:23 | 54.55184 | -2.66418 | 8011 ft | 174 kts | 336° |
| 2026-05-04 09:25 | 54.63026 | -2.71988 | 8008 ft | 174 kts | 336° |
| 2026-05-04 09:25 | 54.64141 | -2.72782 | 8010 ft | 174 kts | 336° |
| 2026-05-04 09:26 | 54.65266 | -2.73583 | 8010 ft | 174 kts | 336° |
| 2026-05-04 09:26 | 54.66381 | -2.74378 | 8008 ft | 174 kts | 336° |
| 2026-05-04 09:26 | 54.67501 | -2.75177 | 8009 ft | 174 kts | 336° |
| 2026-05-04 09:26 | 54.68612 | -2.75971 | 8009 ft | 174 kts | 336° |
| 2026-05-04 09:27 | 54.69734 | -2.76773 | 8009 ft | 174 kts | 336° |
| 2026-05-04 09:27 | 54.70861 | -2.77580 | 8010 ft | 174 kts | 336° |
| 2026-05-04 09:27 | 54.71977 | -2.78379 | 8010 ft | 174 kts | 336° |
| 2026-05-04 09:27 | 54.73099 | -2.79182 | 8009 ft | 174 kts | 336° |
| 2026-05-04 09:28 | 54.74205 | -2.79974 | 8011 ft | 174 kts | 336° |
| 2026-05-04 09:28 | 54.75326 | -2.80777 | 8014 ft | 174 kts | 336° |
| 2026-05-04 09:28 | 54.76451 | -2.81583 | 8015 ft | 174 kts | 336° |
| 2026-05-04 09:28 | 54.77562 | -2.82379 | 8011 ft | 174 kts | 336° |
| 2026-05-04 09:29 | 54.78677 | -2.83179 | 8011 ft | 174 kts | 336° |
| 2026-05-04 09:29 | 54.79790 | -2.83979 | 8010 ft | 174 kts | 336° |
| 2026-05-04 09:29 | 54.80924 | -2.84793 | 8009 ft | 174 kts | 336° |
| 2026-05-04 09:29 | 54.82030 | -2.85588 | 8008 ft | 174 kts | 336° |
| 2026-05-04 09:30 | 54.83159 | -2.86400 | 8008 ft | 174 kts | 336° |
| 2026-05-04 09:30 | 54.84268 | -2.87198 | 8010 ft | 174 kts | 336° |
| 2026-05-04 09:30 | 54.85389 | -2.88005 | 8013 ft | 174 kts | 336° |
| 2026-05-04 09:30 | 54.86506 | -2.88811 | 8013 ft | 174 kts | 336° |
| 2026-05-04 09:31 | 54.87614 | -2.89610 | 8009 ft | 174 kts | 336° |
| 2026-05-04 09:31 | 54.88731 | -2.90415 | 8005 ft | 174 kts | 335° |
| 2026-05-04 09:31 | 54.89852 | -2.91224 | 8004 ft | 174 kts | 336° |
| 2026-05-04 09:31 | 54.90973 | -2.92034 | 8004 ft | 174 kts | 335° |
| 2026-05-04 09:32 | 54.92082 | -2.92837 | 8006 ft | 174 kts | 336° |
| 2026-05-04 09:32 | 54.93193 | -2.93636 | 8005 ft | 174 kts | 336° |
| 2026-05-04 09:34 | 55.01014 | -2.99300 | 8011 ft | 174 kts | 336° |
| 2026-05-04 09:34 | 55.02137 | -3.00116 | 8011 ft | 174 kts | 335° |
| 2026-05-04 09:34 | 55.03246 | -3.00922 | 8008 ft | 173 kts | 335° |
| 2026-05-04 09:34 | 55.04358 | -3.01731 | 8011 ft | 173 kts | 335° |
| 2026-05-04 09:35 | 55.05475 | -3.02545 | 8014 ft | 173 kts | 335° |
| 2026-05-04 09:35 | 55.06582 | -3.03351 | 8017 ft | 173 kts | 336° |
| 2026-05-04 09:35 | 55.07682 | -3.04154 | 8022 ft | 173 kts | 336° |
| 2026-05-04 09:35 | 55.08799 | -3.04969 | 8022 ft | 173 kts | 335° |
| 2026-05-04 09:37 | 55.16611 | -3.10673 | 8015 ft | 174 kts | 335° |
| 2026-05-04 09:37 | 55.17735 | -3.11497 | 8015 ft | 174 kts | 335° |
| 2026-05-04 09:38 | 55.18862 | -3.12324 | 8016 ft | 174 kts | 335° |
| 2026-05-04 09:38 | 55.19977 | -3.13142 | 8015 ft | 174 kts | 335° |
| 2026-05-04 09:38 | 55.21082 | -3.13954 | 8012 ft | 174 kts | 335° |
| 2026-05-04 09:38 | 55.22213 | -3.14784 | 8010 ft | 174 kts | 335° |
| 2026-05-04 09:39 | 55.23313 | -3.15593 | 8008 ft | 174 kts | 335° |
| 2026-05-04 09:39 | 55.24435 | -3.16418 | 8008 ft | 174 kts | 335° |
| 2026-05-04 09:39 | 55.25563 | -3.17248 | 8005 ft | 174 kts | 335° |
| 2026-05-04 09:39 | 55.26685 | -3.18074 | 8006 ft | 174 kts | 335° |
| 2026-05-04 09:40 | 55.27799 | -3.18896 | 8007 ft | 174 kts | 335° |
| 2026-05-04 09:40 | 55.28907 | -3.19712 | 8004 ft | 174 kts | 335° |
| 2026-05-04 09:40 | 55.30026 | -3.20538 | 8003 ft | 174 kts | 335° |
| 2026-05-04 09:40 | 55.31141 | -3.21363 | 8003 ft | 174 kts | 335° |
| 2026-05-04 09:41 | 55.32257 | -3.22188 | 8003 ft | 174 kts | 335° |
| 2026-05-04 09:42 | 55.40029 | -3.27951 | 7998 ft | 174 kts | 335° |
| 2026-05-04 09:43 | 55.41138 | -3.28772 | 7997 ft | 174 kts | 335° |
| 2026-05-04 09:43 | 55.42254 | -3.29600 | 7995 ft | 174 kts | 335° |
| 2026-05-04 09:43 | 55.43370 | -3.30428 | 7994 ft | 173 kts | 335° |
| 2026-05-04 09:43 | 55.44478 | -3.31251 | 7994 ft | 173 kts | 335° |
| 2026-05-04 09:44 | 55.45587 | -3.32075 | 7995 ft | 173 kts | 335° |
| 2026-05-04 09:44 | 55.46700 | -3.32902 | 7996 ft | 173 kts | 335° |
| 2026-05-04 09:44 | 55.47792 | -3.33715 | 7996 ft | 172 kts | 335° |
| 2026-05-04 09:46 | 55.55734 | -3.38025 | 7992 ft | 173 kts | 342° |
| 2026-05-04 09:46 | 55.56860 | -3.38553 | 7992 ft | 174 kts | 342° |
| 2026-05-04 09:46 | 55.57980 | -3.39080 | 7992 ft | 174 kts | 342° |
| 2026-05-04 09:47 | 55.60329 | -3.40185 | 7989 ft | 173 kts | 342° |
| 2026-05-04 09:49 | 55.68446 | -3.44014 | 7994 ft | 173 kts | 342° |
| 2026-05-04 09:49 | 55.69603 | -3.44562 | 7995 ft | 173 kts | 342° |
| 2026-05-04 09:49 | 55.70759 | -3.45108 | 7997 ft | 173 kts | 342° |
| 2026-05-04 09:51 | 55.77694 | -3.48398 | 7998 ft | 173 kts | 342° |
| 2026-05-04 09:51 | 55.78837 | -3.48941 | 7994 ft | 173 kts | 342° |
| 2026-05-04 09:51 | 55.80003 | -3.49495 | 7991 ft | 173 kts | 342° |
| 2026-05-04 09:51 | 55.81150 | -3.50040 | 7991 ft | 172 kts | 342° |
| 2026-05-04 09:52 | 55.82313 | -3.50594 | 7990 ft | 172 kts | 342° |
| 2026-05-04 09:52 | 55.83470 | -3.51146 | 7991 ft | 172 kts | 342° |
| 2026-05-04 09:52 | 55.84629 | -3.51698 | 7993 ft | 172 kts | 342° |
| 2026-05-04 09:52 | 55.85780 | -3.52248 | 7996 ft | 172 kts | 342° |
| 2026-05-04 09:53 | 55.86937 | -3.52800 | 7996 ft | 172 kts | 342° |
| 2026-05-04 09:53 | 55.88089 | -3.53351 | 7994 ft | 172 kts | 342° |
| 2026-05-04 09:53 | 55.89242 | -3.53901 | 7992 ft | 172 kts | 342° |
| 2026-05-04 09:53 | 55.90409 | -3.54460 | 7993 ft | 172 kts | 342° |
| 2026-05-04 09:54 | 55.91566 | -3.55013 | 7994 ft | 172 kts | 342° |
| 2026-05-04 09:54 | 55.92722 | -3.55566 | 7991 ft | 172 kts | 342° |
| 2026-05-04 09:54 | 55.93867 | -3.56114 | 7991 ft | 172 kts | 342° |
| 2026-05-04 09:54 | 55.95021 | -3.56668 | 7993 ft | 172 kts | 342° |
| 2026-05-04 09:55 | 55.96175 | -3.57222 | 7996 ft | 171 kts | 342° |
| 2026-05-04 09:55 | 55.97334 | -3.57778 | 7997 ft | 172 kts | 342° |
| 2026-05-04 09:55 | 55.98484 | -3.58331 | 7997 ft | 171 kts | 342° |
| 2026-05-04 09:55 | 55.99631 | -3.58882 | 7995 ft | 172 kts | 342° |
| 2026-05-04 09:56 | 56.00778 | -3.59433 | 7994 ft | 172 kts | 342° |
| 2026-05-04 09:56 | 56.01931 | -3.59988 | 7992 ft | 172 kts | 342° |
| 2026-05-04 09:56 | 56.03095 | -3.60548 | 7990 ft | 172 kts | 342° |
| 2026-05-04 09:56 | 56.04254 | -3.61109 | 7989 ft | 172 kts | 341° |
| 2026-05-04 09:57 | 56.05396 | -3.61660 | 7990 ft | 172 kts | 342° |
| 2026-05-04 09:57 | 56.06549 | -3.62217 | 7987 ft | 172 kts | 342° |
| 2026-05-04 09:57 | 56.07714 | -3.62779 | 7989 ft | 172 kts | 342° |
| 2026-05-04 09:57 | 56.08864 | -3.63336 | 7989 ft | 172 kts | 342° |
| 2026-05-04 09:58 | 56.10009 | -3.63889 | 7987 ft | 171 kts | 342° |
| 2026-05-04 09:58 | 56.11166 | -3.64448 | 7991 ft | 172 kts | 342° |
| 2026-05-04 09:58 | 56.12305 | -3.64999 | 7989 ft | 172 kts | 342° |
| 2026-05-04 10:00 | 56.20406 | -3.67513 | 7985 ft | 183 kts | 26° |
| 2026-05-04 10:00 | 56.21474 | -3.66222 | 7987 ft | 185 kts | 29° |
| 2026-05-04 10:02 | 56.28805 | -3.56848 | 7980 ft | 185 kts | 30° |
| 2026-05-04 10:04 | 56.36140 | -3.47391 | 7983 ft | 186 kts | 30° |
| 2026-05-04 10:04 | 56.37188 | -3.46036 | 7985 ft | 186 kts | 30° |
| 2026-05-04 10:04 | 56.38233 | -3.44683 | 7985 ft | 186 kts | 30° |
| 2026-05-04 10:04 | 56.39284 | -3.43323 | 7982 ft | 186 kts | 30° |
| 2026-05-04 10:05 | 56.40328 | -3.41969 | 7982 ft | 186 kts | 30° |
| 2026-05-04 10:05 | 56.41382 | -3.40601 | 7989 ft | 186 kts | 30° |
| 2026-05-04 10:05 | 56.42428 | -3.39244 | 7995 ft | 187 kts | 30° |
| 2026-05-04 10:05 | 56.43492 | -3.37861 | 7990 ft | 187 kts | 30° |
| 2026-05-04 10:06 | 56.44543 | -3.36514 | 7980 ft | 186 kts | 28° |
| 2026-05-04 10:06 | 56.45610 | -3.35196 | 7983 ft | 186 kts | 28° |
| 2026-05-04 10:06 | 56.46680 | -3.33877 | 7985 ft | 186 kts | 29° |
| 2026-05-04 10:08 | 56.53043 | -3.26009 | 7983 ft | 185 kts | 29° |
| 2026-05-04 10:08 | 56.54120 | -3.24705 | 7981 ft | 185 kts | 28° |
| 2026-05-04 10:08 | 56.55195 | -3.23436 | 7982 ft | 185 kts | 27° |
| 2026-05-04 10:08 | 56.56282 | -3.22187 | 7981 ft | 185 kts | 27° |
| 2026-05-04 10:09 | 56.57375 | -3.20965 | 7979 ft | 185 kts | 26° |
| 2026-05-04 10:09 | 56.58481 | -3.19762 | 7978 ft | 185 kts | 25° |
| 2026-05-04 10:09 | 56.59587 | -3.18593 | 7976 ft | 185 kts | 24° |
| 2026-05-04 10:09 | 56.60709 | -3.17440 | 7977 ft | 185 kts | 24° |
| 2026-05-04 10:10 | 56.61837 | -3.16311 | 7957 ft | 185 kts | 23° |
| 2026-05-04 10:10 | 56.62982 | -3.15200 | 7879 ft | 188 kts | 23° |
| 2026-05-04 10:10 | 56.64134 | -3.14107 | 7807 ft | 187 kts | 22° |
| 2026-05-04 10:10 | 56.65277 | -3.13046 | 7721 ft | 185 kts | 22° |
| 2026-05-04 10:11 | 56.66427 | -3.12004 | 7637 ft | 182 kts | 21° |
| 2026-05-04 10:11 | 56.67564 | -3.11000 | 7548 ft | 180 kts | 20° |
| 2026-05-04 10:11 | 56.68602 | -3.09766 | 7420 ft | 186 kts | 46° |
| 2026-05-04 10:11 | 56.69327 | -3.07798 | 7313 ft | 186 kts | 50° |
| 2026-05-04 10:12 | 56.70087 | -3.05922 | 7233 ft | 185 kts | 49° |
| 2026-05-04 10:12 | 56.70882 | -3.04057 | 7122 ft | 184 kts | 46° |
| 2026-05-04 10:12 | 56.71727 | -3.02313 | 7032 ft | 184 kts | 43° |
| 2026-05-04 10:12 | 56.72606 | -3.00645 | 6933 ft | 183 kts | 41° |
| 2026-05-04 10:13 | 56.73515 | -2.99007 | 6836 ft | 183 kts | 40° |
| 2026-05-04 10:13 | 56.74432 | -2.97428 | 6742 ft | 181 kts | 35° |
| 2026-05-04 10:13 | 56.75455 | -2.96125 | 6664 ft | 179 kts | 28° |
| 2026-05-04 10:13 | 56.76499 | -2.94905 | 6574 ft | 179 kts | 28° |
| 2026-05-04 10:14 | 56.77557 | -2.93689 | 6472 ft | 179 kts | 28° |
| 2026-05-04 10:14 | 56.78599 | -2.92501 | 6385 ft | 178 kts | 28° |
| 2026-05-04 10:16 | 56.85924 | -2.84227 | 5935 ft | 171 kts | 27° |
| 2026-05-04 10:16 | 56.86942 | -2.83076 | 5941 ft | 169 kts | 27° |
| 2026-05-04 10:16 | 56.87934 | -2.81952 | 5945 ft | 169 kts | 27° |
| 2026-05-04 10:16 | 56.88926 | -2.80829 | 5943 ft | 168 kts | 27° |
| 2026-05-04 10:17 | 56.89919 | -2.79698 | 5938 ft | 168 kts | 29° |
| 2026-05-04 10:17 | 56.90820 | -2.78305 | 5941 ft | 166 kts | 26° |
| 2026-05-04 10:19 | 56.97145 | -2.68936 | 5670 ft | 178 kts | 61° |
| 2026-05-04 10:19 | 56.97784 | -2.67009 | 5641 ft | 176 kts | 53° |
| 2026-05-04 10:19 | 56.98450 | -2.65156 | 5611 ft | 176 kts | 53° |
| 2026-05-04 10:19 | 56.98987 | -2.63129 | 5560 ft | 179 kts | 69° |
| 2026-05-04 10:20 | 56.99262 | -2.60890 | 5522 ft | 180 kts | 78° |
| 2026-05-04 10:20 | 56.99411 | -2.58595 | 5477 ft | 181 kts | 82° |
| 2026-05-04 10:20 | 56.99507 | -2.56319 | 5444 ft | 181 kts | 83° |
| 2026-05-04 10:20 | 56.99585 | -2.54022 | 5414 ft | 181 kts | 84° |
| 2026-05-04 10:21 | 56.99657 | -2.51709 | 5376 ft | 181 kts | 84° |
| 2026-05-04 10:21 | 56.99725 | -2.49414 | 5350 ft | 181 kts | 84° |
| 2026-05-04 10:21 | 56.99658 | -2.47099 | 5314 ft | 182 kts | 104° |
| 2026-05-04 10:21 | 56.99247 | -2.44918 | 5279 ft | 182 kts | 108° |
| 2026-05-04 10:22 | 56.98564 | -2.40511 | 5222 ft | 180 kts | 102° |
| 2026-05-04 10:22 | 56.98305 | -2.38270 | 5203 ft | 180 kts | 99° |
| 2026-05-04 10:22 | 56.98093 | -2.36000 | 5162 ft | 180 kts | 97° |
| 2026-05-04 10:23 | 56.97930 | -2.33748 | 5141 ft | 180 kts | 95° |
| 2026-05-04 10:23 | 56.97808 | -2.31474 | 5106 ft | 181 kts | 95° |
| 2026-05-04 10:25 | 56.98316 | -2.15226 | 4218 ft | 180 kts | 78° |
| 2026-05-04 10:25 | 56.98683 | -2.13059 | 4031 ft | 175 kts | 63° |
| 2026-05-04 10:25 | 56.99316 | -2.11218 | 3840 ft | 168 kts | 47° |
| 2026-05-04 10:25 | 57.00154 | -2.09780 | 3642 ft | 163 kts | 32° |
| 2026-05-04 10:26 | 57.01125 | -2.08799 | 3437 ft | 159 kts | 18° |
| 2026-05-04 10:26 | 57.02196 | -2.08380 | 3223 ft | 155 kts | 6° |
| 2026-05-04 10:26 | 57.03250 | -2.08211 | 3010 ft | 152 kts | 356° |
| 2026-05-04 10:26 | 57.04275 | -2.08491 | 2797 ft | 149 kts | 342° |
| 2026-05-04 10:27 | 57.05170 | -2.09181 | 2718 ft | 131 kts | 333° |
| 2026-05-04 10:27 | 57.06011 | -2.09682 | 2584 ft | 124 kts | 346° |
| 2026-05-04 10:27 | 57.06857 | -2.09800 | 2429 ft | 122 kts | 359° |
| 2026-05-04 10:27 | 57.07686 | -2.09546 | 2262 ft | 122 kts | 12° |
| 2026-05-04 10:28 | 57.08510 | -2.09377 | 2086 ft | 118 kts | 341° |
| 2026-05-04 10:28 | 57.09109 | -2.10279 | 1910 ft | 115 kts | 295° |
| 2026-05-04 10:28 | 57.09228 | -2.11718 | 1725 ft | 115 kts | 281° |
| 2026-05-04 10:28 | 57.09661 | -2.12913 | 1523 ft | 115 kts | 324° |
| 2026-05-04 10:29 | 57.10424 | -2.13259 | 1321 ft | 114 kts | 353° |
| 2026-05-04 10:29 | 57.11166 | -2.13442 | 1106 ft | 100 kts | 344° |
| 2026-05-04 10:29 | 57.11804 | -2.13756 | 892 ft | 92 kts | 340° |
| 2026-05-04 10:29 | 57.12400 | -2.14122 | 782 ft | 81 kts | 338° |
| 2026-05-04 10:30 | 57.12906 | -2.14463 | 813 ft | 77 kts | 336° |
| 2026-05-04 10:30 | 57.13423 | -2.14829 | 832 ft | 84 kts | 335° |
| 2026-05-04 10:30 | 57.14000 | -2.15245 | 834 ft | 92 kts | 336° |
| 2026-05-04 10:30 | 57.14622 | -2.15697 | 832 ft | 97 kts | 335° |
| 2026-05-04 10:31 | 57.15253 | -2.16159 | 827 ft | 99 kts | 334° |
| 2026-05-04 10:31 | 57.15896 | -2.16628 | 826 ft | 100 kts | 336° |
| 2026-05-04 10:32 | 57.19654 | -2.19384 | 223 ft | 81 kts | 337° |
| 2026-05-04 10:33 | 57.20010 | -2.19662 | 204 ft | 37 kts | 338° |
| 2026-05-04 10:33 | 57.20203 | -2.19930 | 205 ft | 32 kts | 316° |
| 2026-05-04 10:33 | 57.20349 | -2.20175 | 207 ft | 11 kts | 307° |
| 2026-05-04 10:33 | 57.20327 | -2.20287 | 212 ft | 10 kts | 199° |
| 2026-05-04 10:34 | 57.20235 | -2.20249 | 213 ft | 16 kts | 176° |
| 2026-05-04 10:34 | 57.20195 | -2.20346 | 217 ft | 3 kts | 249° |
| 2026-05-04 10:34 | 57.20191 | -2.20368 | 218 ft | 0 kts | 251° |